sensor_id;sensor_type;location;lat;lon;timestamp;temperature;humidity
40287;DHT22;25998;46.604;13.610;2023-03-26T00:01:15;6.30;99.90
40287;DHT22;25998;46.604;13.610;2023-03-26T00:04:26;6.40;99.90
40287;DHT22;25998;46.604;13.610;2023-03-26T00:07:37;6.50;99.90
40287;DHT22;25998;46.604;13.610;2023-03-26T00:10:48;6.40;99.90
40287;DHT22;25998;46.604;13.610;2023-03-26T00:13:59;6.00;99.90
40287;DHT22;25998;46.604;13.610;2023-03-26T00:17:10;6.10;99.90
40287;DHT22;25998;46.604;13.610;2023-03-26T00:20:22;6.30;99.90
40287;DHT22;25998;46.604;13.610;2023-03-26T00:23:36;6.20;99.90
40287;DHT22;25998;46.604;13.610;2023-03-26T00:26:48;6.10;99.90
40287;DHT22;25998;46.604;13.610;2023-03-26T00:30:03;6.20;99.90
40287;DHT22;25998;46.604;13.610;2023-03-26T00:33:15;6.10;99.90
40287;DHT22;25998;46.604;13.610;2023-03-26T00:36:29;6.20;99.90
40287;DHT22;25998;46.604;13.610;2023-03-26T00:39:40;6.20;99.90
40287;DHT22;25998;46.604;13.610;2023-03-26T00:42:52;6.30;99.90
40287;DHT22;25998;46.604;13.610;2023-03-26T00:46:03;6.30;99.90
40287;DHT22;25998;46.604;13.610;2023-03-26T00:49:14;6.20;99.90
40287;DHT22;25998;46.604;13.610;2023-03-26T00:52:25;6.20;99.90
40287;DHT22;25998;46.604;13.610;2023-03-26T00:55:41;6.10;99.90
40287;DHT22;25998;46.604;13.610;2023-03-26T00:58:52;6.20;99.90
40287;DHT22;25998;46.604;13.610;2023-03-26T01:02:03;6.40;99.90
40287;DHT22;25998;46.604;13.610;2023-03-26T01:08:48;6.20;99.90
40287;DHT22;25998;46.604;13.610;2023-03-26T01:12:02;6.10;99.90
40287;DHT22;25998;46.604;13.610;2023-03-26T01:15:14;6.10;99.90
40287;DHT22;25998;46.604;13.610;2023-03-26T01:18:24;6.00;99.90
40287;DHT22;25998;46.604;13.610;2023-03-26T01:21:36;5.80;99.90
40287;DHT22;25998;46.604;13.610;2023-03-26T01:24:48;5.50;99.90
40287;DHT22;25998;46.604;13.610;2023-03-26T01:28:07;5.40;99.90
40287;DHT22;25998;46.604;13.610;2023-03-26T01:31:54;5.40;99.90
40287;DHT22;25998;46.604;13.610;2023-03-26T01:35:30;5.30;99.90
40287;DHT22;25998;46.604;13.610;2023-03-26T01:46:03;5.50;99.90
40287;DHT22;25998;46.604;13.610;2023-03-26T01:49:14;5.40;99.90
40287;DHT22;25998;46.604;13.610;2023-03-26T01:52:27;5.40;99.90
40287;DHT22;25998;46.604;13.610;2023-03-26T01:56:01;5.50;99.90
40287;DHT22;25998;46.604;13.610;2023-03-26T02:03:32;5.60;99.90
40287;DHT22;25998;46.604;13.610;2023-03-26T02:07:22;5.70;99.90
40287;DHT22;25998;46.604;13.610;2023-03-26T02:10:33;5.70;99.90
40287;DHT22;25998;46.604;13.610;2023-03-26T02:13:46;5.70;99.90
40287;DHT22;25998;46.604;13.610;2023-03-26T02:16:58;5.60;99.90
40287;DHT22;25998;46.604;13.610;2023-03-26T02:20:12;5.70;99.90
40287;DHT22;25998;46.604;13.610;2023-03-26T02:23:24;5.80;99.90
40287;DHT22;25998;46.604;13.610;2023-03-26T02:26:39;6.00;99.90
40287;DHT22;25998;46.604;13.610;2023-03-26T02:29:50;5.80;99.90
40287;DHT22;25998;46.604;13.610;2023-03-26T02:33:01;5.70;99.90
40287;DHT22;25998;46.604;13.610;2023-03-26T02:36:12;5.60;99.90
40287;DHT22;25998;46.604;13.610;2023-03-26T02:39:24;5.40;99.90
40287;DHT22;25998;46.604;13.610;2023-03-26T02:42:36;5.40;99.90
40287;DHT22;25998;46.604;13.610;2023-03-26T02:45:47;5.30;99.90
40287;DHT22;25998;46.604;13.610;2023-03-26T02:48:58;5.40;99.90
40287;DHT22;25998;46.604;13.610;2023-03-26T02:52:09;5.40;99.90
40287;DHT22;25998;46.604;13.610;2023-03-26T02:55:20;5.70;99.90
40287;DHT22;25998;46.604;13.610;2023-03-26T02:58:31;5.60;99.90
40287;DHT22;25998;46.604;13.610;2023-03-26T03:01:42;5.60;99.90
40287;DHT22;25998;46.604;13.610;2023-03-26T03:04:56;5.50;99.90
40287;DHT22;25998;46.604;13.610;2023-03-26T03:08:10;5.70;99.90
40287;DHT22;25998;46.604;13.610;2023-03-26T03:11:22;6.00;99.90
40287;DHT22;25998;46.604;13.610;2023-03-26T03:14:36;6.00;99.90
40287;DHT22;25998;46.604;13.610;2023-03-26T03:17:47;5.80;99.90
40287;DHT22;25998;46.604;13.610;2023-03-26T03:20:58;5.90;99.90
40287;DHT22;25998;46.604;13.610;2023-03-26T03:24:09;6.00;99.90
40287;DHT22;25998;46.604;13.610;2023-03-26T03:27:21;6.10;99.90
40287;DHT22;25998;46.604;13.610;2023-03-26T03:30:34;6.20;99.90
40287;DHT22;25998;46.604;13.610;2023-03-26T03:33:45;6.00;99.90
40287;DHT22;25998;46.604;13.610;2023-03-26T03:36:56;6.10;99.90
40287;DHT22;25998;46.604;13.610;2023-03-26T03:40:07;6.20;99.90
40287;DHT22;25998;46.604;13.610;2023-03-26T03:43:20;6.10;99.90
40287;DHT22;25998;46.604;13.610;2023-03-26T03:46:31;6.00;99.90
40287;DHT22;25998;46.604;13.610;2023-03-26T03:49:42;5.90;99.90
40287;DHT22;25998;46.604;13.610;2023-03-26T03:52:53;6.00;99.90
40287;DHT22;25998;46.604;13.610;2023-03-26T03:56:05;6.00;99.90
40287;DHT22;25998;46.604;13.610;2023-03-26T03:59:19;5.90;99.90
40287;DHT22;25998;46.604;13.610;2023-03-26T04:02:30;5.80;99.90
40287;DHT22;25998;46.604;13.610;2023-03-26T04:05:45;5.80;99.90
40287;DHT22;25998;46.604;13.610;2023-03-26T04:08:59;5.70;99.90
40287;DHT22;25998;46.604;13.610;2023-03-26T04:12:10;5.60;99.90
40287;DHT22;25998;46.604;13.610;2023-03-26T04:15:20;5.80;99.90
40287;DHT22;25998;46.604;13.610;2023-03-26T04:18:31;5.70;99.90
40287;DHT22;25998;46.604;13.610;2023-03-26T04:21:42;5.80;99.90
40287;DHT22;25998;46.604;13.610;2023-03-26T04:24:53;5.90;99.90
40287;DHT22;25998;46.604;13.610;2023-03-26T04:28:06;6.00;99.90
40287;DHT22;25998;46.604;13.610;2023-03-26T04:31:20;6.00;99.90
40287;DHT22;25998;46.604;13.610;2023-03-26T04:34:33;5.90;99.90
40287;DHT22;25998;46.604;13.610;2023-03-26T04:37:45;5.80;99.90
40287;DHT22;25998;46.604;13.610;2023-03-26T04:40:57;5.80;99.90
40287;DHT22;25998;46.604;13.610;2023-03-26T04:44:09;5.70;99.90
40287;DHT22;25998;46.604;13.610;2023-03-26T04:47:21;5.50;99.90
40287;DHT22;25998;46.604;13.610;2023-03-26T04:50:32;5.60;99.90
40287;DHT22;25998;46.604;13.610;2023-03-26T04:53:56;5.50;99.90
40287;DHT22;25998;46.604;13.610;2023-03-26T04:57:16;5.50;99.90
40287;DHT22;25998;46.604;13.610;2023-03-26T05:00:28;5.60;99.90
40287;DHT22;25998;46.604;13.610;2023-03-26T05:03:39;5.60;99.90
40287;DHT22;25998;46.604;13.610;2023-03-26T05:06:56;5.70;99.90
40287;DHT22;25998;46.604;13.610;2023-03-26T05:10:11;5.60;99.90
40287;DHT22;25998;46.604;13.610;2023-03-26T05:13:23;5.40;99.90
40287;DHT22;25998;46.604;13.610;2023-03-26T05:16:35;5.50;99.90
40287;DHT22;25998;46.604;13.610;2023-03-26T05:19:46;5.40;99.90
40287;DHT22;25998;46.604;13.610;2023-03-26T05:22:57;5.30;99.90
40287;DHT22;25998;46.604;13.610;2023-03-26T05:26:09;5.40;99.90
40287;DHT22;25998;46.604;13.610;2023-03-26T05:29:20;5.60;99.90
40287;DHT22;25998;46.604;13.610;2023-03-26T05:32:33;5.70;99.90
40287;DHT22;25998;46.604;13.610;2023-03-26T05:35:44;5.70;99.90
40287;DHT22;25998;46.604;13.610;2023-03-26T05:38:55;5.40;99.90
40287;DHT22;25998;46.604;13.610;2023-03-26T05:42:06;5.30;99.90
40287;DHT22;25998;46.604;13.610;2023-03-26T05:45:17;5.40;99.90
40287;DHT22;25998;46.604;13.610;2023-03-26T05:48:28;5.60;99.90
40287;DHT22;25998;46.604;13.610;2023-03-26T05:51:39;5.80;99.90
40287;DHT22;25998;46.604;13.610;2023-03-26T05:54:50;5.80;99.90
40287;DHT22;25998;46.604;13.610;2023-03-26T05:58:01;5.70;99.90
40287;DHT22;25998;46.604;13.610;2023-03-26T06:01:13;5.60;99.90
40287;DHT22;25998;46.604;13.610;2023-03-26T06:04:27;5.50;99.90
40287;DHT22;25998;46.604;13.610;2023-03-26T06:07:38;5.60;99.90
40287;DHT22;25998;46.604;13.610;2023-03-26T06:10:49;5.80;99.90
40287;DHT22;25998;46.604;13.610;2023-03-26T06:14:00;5.90;99.90
40287;DHT22;25998;46.604;13.610;2023-03-26T06:17:11;6.00;99.90
40287;DHT22;25998;46.604;13.610;2023-03-26T06:20:22;6.10;99.90
40287;DHT22;25998;46.604;13.610;2023-03-26T06:23:33;6.10;99.90
40287;DHT22;25998;46.604;13.610;2023-03-26T06:26:45;6.10;99.90
40287;DHT22;25998;46.604;13.610;2023-03-26T06:29:56;6.20;99.90
40287;DHT22;25998;46.604;13.610;2023-03-26T06:33:07;6.20;99.90
40287;DHT22;25998;46.604;13.610;2023-03-26T06:36:18;6.10;99.90
40287;DHT22;25998;46.604;13.610;2023-03-26T06:39:29;6.00;99.90
40287;DHT22;25998;46.604;13.610;2023-03-26T06:42:40;6.10;99.90
40287;DHT22;25998;46.604;13.610;2023-03-26T06:45:51;6.20;99.90
40287;DHT22;25998;46.604;13.610;2023-03-26T06:49:02;6.20;99.90
40287;DHT22;25998;46.604;13.610;2023-03-26T06:52:13;6.30;99.90
40287;DHT22;25998;46.604;13.610;2023-03-26T06:55:25;6.20;99.90
40287;DHT22;25998;46.604;13.610;2023-03-26T06:58:36;6.20;99.90
40287;DHT22;25998;46.604;13.610;2023-03-26T07:01:47;6.30;99.90
40287;DHT22;25998;46.604;13.610;2023-03-26T07:04:58;6.30;99.90
40287;DHT22;25998;46.604;13.610;2023-03-26T07:08:09;6.30;99.90
40287;DHT22;25998;46.604;13.610;2023-03-26T07:11:20;6.40;99.90
40287;DHT22;25998;46.604;13.610;2023-03-26T07:14:34;6.20;99.90
40287;DHT22;25998;46.604;13.610;2023-03-26T07:17:48;6.10;99.90
40287;DHT22;25998;46.604;13.610;2023-03-26T07:20:59;6.10;99.90
40287;DHT22;25998;46.604;13.610;2023-03-26T07:24:10;6.30;99.90
40287;DHT22;25998;46.604;13.610;2023-03-26T07:38:43;6.40;99.90
40287;DHT22;25998;46.604;13.610;2023-03-26T07:42:04;6.50;99.90
40287;DHT22;25998;46.604;13.610;2023-03-26T07:45:28;6.70;99.90
40287;DHT22;25998;46.604;13.610;2023-03-26T07:48:44;7.10;99.90
40287;DHT22;25998;46.604;13.610;2023-03-26T07:51:58;7.40;99.90
40287;DHT22;25998;46.604;13.610;2023-03-26T07:55:15;8.00;99.90
40287;DHT22;25998;46.604;13.610;2023-03-26T07:58:35;8.80;99.90
40287;DHT22;25998;46.604;13.610;2023-03-26T08:05:51;9.10;99.90
40287;DHT22;25998;46.604;13.610;2023-03-26T08:09:22;9.80;99.90
40287;DHT22;25998;46.604;13.610;2023-03-26T08:16:52;11.10;99.90
40287;DHT22;25998;46.604;13.610;2023-03-26T08:20:31;11.60;99.90
40287;DHT22;25998;46.604;13.610;2023-03-26T08:24:21;11.30;99.90
40287;DHT22;25998;46.604;13.610;2023-03-26T08:27:40;11.70;99.90
40287;DHT22;25998;46.604;13.610;2023-03-26T08:30:52;10.90;99.90
40287;DHT22;25998;46.604;13.610;2023-03-26T08:34:09;10.60;99.90
40287;DHT22;25998;46.604;13.610;2023-03-26T08:37:20;10.80;99.90
40287;DHT22;25998;46.604;13.610;2023-03-26T08:55:14;11.50;99.90
40287;DHT22;25998;46.604;13.610;2023-03-26T09:02:10;11.20;99.90
40287;DHT22;25998;46.604;13.610;2023-03-26T09:05:57;11.70;99.90
40287;DHT22;25998;46.604;13.610;2023-03-26T09:13:13;12.80;99.50
40287;DHT22;25998;46.604;13.610;2023-03-26T09:16:35;13.00;99.50
40287;DHT22;25998;46.604;13.610;2023-03-26T09:26:29;12.60;99.30
40287;DHT22;25998;46.604;13.610;2023-03-26T09:43:30;12.90;98.70
40287;DHT22;25998;46.604;13.610;2023-03-26T10:15:35;14.10;97.80
40287;DHT22;25998;46.604;13.610;2023-03-26T10:23:03;14.20;97.80
40287;DHT22;25998;46.604;13.610;2023-03-26T10:30:14;14.10;97.90
40287;DHT22;25998;46.604;13.610;2023-03-26T10:41:02;14.40;98.10
40287;DHT22;25998;46.604;13.610;2023-03-26T10:51:51;14.10;97.40
40287;DHT22;25998;46.604;13.610;2023-03-26T10:55:13;13.90;98.30
40287;DHT22;25998;46.604;13.610;2023-03-26T10:58:27;13.90;98.50
40287;DHT22;25998;46.604;13.610;2023-03-26T11:13:02;15.80;97.70
40287;DHT22;25998;46.604;13.610;2023-03-26T11:23:45;16.10;95.90
40287;DHT22;25998;46.604;13.610;2023-03-26T11:27:15;16.50;96.80
40287;DHT22;25998;46.604;13.610;2023-03-26T11:30:38;16.20;95.90
40287;DHT22;25998;46.604;13.610;2023-03-26T11:34:02;15.80;96.00
40287;DHT22;25998;46.604;13.610;2023-03-26T11:37:26;15.80;94.80
40287;DHT22;25998;46.604;13.610;2023-03-26T11:40:48;15.90;95.20
40287;DHT22;25998;46.604;13.610;2023-03-26T11:44:25;15.70;94.70
40287;DHT22;25998;46.604;13.610;2023-03-26T11:47:49;15.40;96.40
40287;DHT22;25998;46.604;13.610;2023-03-26T11:51:04;15.00;97.60
40287;DHT22;25998;46.604;13.610;2023-03-26T11:54:17;14.60;98.20
40287;DHT22;25998;46.604;13.610;2023-03-26T11:57:33;14.50;97.00
40287;DHT22;25998;46.604;13.610;2023-03-26T12:00:46;14.40;97.70
40287;DHT22;25998;46.604;13.610;2023-03-26T12:04:18;14.50;97.30
40287;DHT22;25998;46.604;13.610;2023-03-26T12:07:34;14.40;97.50
40287;DHT22;25998;46.604;13.610;2023-03-26T12:10:58;14.60;97.10
40287;DHT22;25998;46.604;13.610;2023-03-26T12:14:18;14.40;96.90
40287;DHT22;25998;46.604;13.610;2023-03-26T12:17:37;14.50;97.00
40287;DHT22;25998;46.604;13.610;2023-03-26T12:21:08;14.40;98.10
40287;DHT22;25998;46.604;13.610;2023-03-26T12:24:34;14.40;97.30
40287;DHT22;25998;46.604;13.610;2023-03-26T12:31:23;14.50;98.10
40287;DHT22;25998;46.604;13.610;2023-03-26T12:34:37;14.40;97.60
40287;DHT22;25998;46.604;13.610;2023-03-26T12:37:49;14.50;97.40
40287;DHT22;25998;46.604;13.610;2023-03-26T12:41:08;14.30;98.00
40287;DHT22;25998;46.604;13.610;2023-03-26T12:47:37;14.00;98.30
40287;DHT22;25998;46.604;13.610;2023-03-26T12:50:52;14.10;97.80
40287;DHT22;25998;46.604;13.610;2023-03-26T12:57:35;14.30;98.20
40287;DHT22;25998;46.604;13.610;2023-03-26T13:14:50;14.00;97.70
40287;DHT22;25998;46.604;13.610;2023-03-26T13:28:43;14.30;97.30
40287;DHT22;25998;46.604;13.610;2023-03-26T13:32:10;14.30;97.40
40287;DHT22;25998;46.604;13.610;2023-03-26T13:42:23;14.40;95.80
40287;DHT22;25998;46.604;13.610;2023-03-26T13:46:08;14.40;96.30
40287;DHT22;25998;46.604;13.610;2023-03-26T13:49:43;14.20;97.00
40287;DHT22;25998;46.604;13.610;2023-03-26T13:53:20;14.10;97.50
40287;DHT22;25998;46.604;13.610;2023-03-26T13:56:37;14.00;96.90
40287;DHT22;25998;46.604;13.610;2023-03-26T14:03:42;14.10;98.20
40287;DHT22;25998;46.604;13.610;2023-03-26T14:16:56;13.90;97.60
40287;DHT22;25998;46.604;13.610;2023-03-26T14:52:01;13.30;99.90
40287;DHT22;25998;46.604;13.610;2023-03-26T15:10:22;12.90;97.90
40287;DHT22;25998;46.604;13.610;2023-03-26T15:13:59;12.80;99.30
40287;DHT22;25998;46.604;13.610;2023-03-26T15:17:28;12.50;99.90
40287;DHT22;25998;46.604;13.610;2023-03-26T15:24:41;12.10;99.90
40287;DHT22;25998;46.604;13.610;2023-03-26T15:43:02;11.80;99.90
40287;DHT22;25998;46.604;13.610;2023-03-26T15:50:05;12.10;99.90
40287;DHT22;25998;46.604;13.610;2023-03-26T15:53:38;12.10;99.90
40287;DHT22;25998;46.604;13.610;2023-03-26T15:57:33;12.20;99.90
40287;DHT22;25998;46.604;13.610;2023-03-26T16:00:55;12.10;99.90
40287;DHT22;25998;46.604;13.610;2023-03-26T16:04:39;11.70;99.90
40287;DHT22;25998;46.604;13.610;2023-03-26T16:08:19;11.50;99.90
40287;DHT22;25998;46.604;13.610;2023-03-26T16:11:49;11.10;99.90
40287;DHT22;25998;46.604;13.610;2023-03-26T16:15:29;10.90;99.90
40287;DHT22;25998;46.604;13.610;2023-03-26T16:18:42;10.80;99.90
40287;DHT22;25998;46.604;13.610;2023-03-26T16:22:05;10.90;99.90
40287;DHT22;25998;46.604;13.610;2023-03-26T16:25:23;11.10;99.90
40287;DHT22;25998;46.604;13.610;2023-03-26T16:28:36;11.30;99.90
40287;DHT22;25998;46.604;13.610;2023-03-26T16:45:33;9.60;99.90
40287;DHT22;25998;46.604;13.610;2023-03-26T17:11:02;8.80;99.90
40287;DHT22;25998;46.604;13.610;2023-03-26T17:14:33;8.70;99.90
40287;DHT22;25998;46.604;13.610;2023-03-26T17:25:12;8.80;99.90
40287;DHT22;25998;46.604;13.610;2023-03-26T17:32:13;8.90;99.90
40287;DHT22;25998;46.604;13.610;2023-03-26T17:35:48;9.10;99.90
40287;DHT22;25998;46.604;13.610;2023-03-26T17:39:04;9.10;99.90
40287;DHT22;25998;46.604;13.610;2023-03-26T17:45:42;9.50;99.90
40287;DHT22;25998;46.604;13.610;2023-03-26T17:49:27;9.50;99.90
40287;DHT22;25998;46.604;13.610;2023-03-26T17:52:57;9.60;99.90
40287;DHT22;25998;46.604;13.610;2023-03-26T17:56:15;9.60;99.90
40287;DHT22;25998;46.604;13.610;2023-03-26T17:59:28;9.70;99.90
40287;DHT22;25998;46.604;13.610;2023-03-26T18:02:54;9.80;99.90
40287;DHT22;25998;46.604;13.610;2023-03-26T18:10:22;9.80;99.90
40287;DHT22;25998;46.604;13.610;2023-03-26T18:17:11;9.70;99.90
40287;DHT22;25998;46.604;13.610;2023-03-26T18:20:27;9.70;99.90
40287;DHT22;25998;46.604;13.610;2023-03-26T18:23:44;9.50;99.90
40287;DHT22;25998;46.604;13.610;2023-03-26T18:27:13;9.50;99.90
40287;DHT22;25998;46.604;13.610;2023-03-26T18:30:25;9.30;99.90
40287;DHT22;25998;46.604;13.610;2023-03-26T18:33:44;9.40;99.90
40287;DHT22;25998;46.604;13.610;2023-03-26T18:40:22;9.40;99.90
40287;DHT22;25998;46.604;13.610;2023-03-26T18:43:34;9.40;99.90
40287;DHT22;25998;46.604;13.610;2023-03-26T18:46:46;9.50;99.90
40287;DHT22;25998;46.604;13.610;2023-03-26T18:49:57;9.50;99.90
40287;DHT22;25998;46.604;13.610;2023-03-26T18:53:25;9.50;99.90
40287;DHT22;25998;46.604;13.610;2023-03-26T18:56:41;9.60;99.90
40287;DHT22;25998;46.604;13.610;2023-03-26T18:59:54;9.50;99.90
40287;DHT22;25998;46.604;13.610;2023-03-26T19:03:08;9.50;99.90
40287;DHT22;25998;46.604;13.610;2023-03-26T19:06:20;9.50;99.90
40287;DHT22;25998;46.604;13.610;2023-03-26T19:09:32;9.40;99.90
40287;DHT22;25998;46.604;13.610;2023-03-26T19:12:44;9.30;99.90
40287;DHT22;25998;46.604;13.610;2023-03-26T19:15:55;9.40;99.90
40287;DHT22;25998;46.604;13.610;2023-03-26T19:19:07;9.30;99.90
40287;DHT22;25998;46.604;13.610;2023-03-26T19:22:18;9.40;99.90
40287;DHT22;25998;46.604;13.610;2023-03-26T19:25:32;9.30;99.90
40287;DHT22;25998;46.604;13.610;2023-03-26T19:28:47;9.30;99.90
40287;DHT22;25998;46.604;13.610;2023-03-26T19:32:26;9.20;99.90
40287;DHT22;25998;46.604;13.610;2023-03-26T19:35:39;9.20;99.90
40287;DHT22;25998;46.604;13.610;2023-03-26T19:39:11;9.30;99.90
40287;DHT22;25998;46.604;13.610;2023-03-26T19:42:28;9.30;99.90
40287;DHT22;25998;46.604;13.610;2023-03-26T19:45:42;9.40;99.90
40287;DHT22;25998;46.604;13.610;2023-03-26T19:48:54;9.40;99.90
40287;DHT22;25998;46.604;13.610;2023-03-26T19:55:28;9.00;99.90
40287;DHT22;25998;46.604;13.610;2023-03-26T19:58:40;8.70;99.90
40287;DHT22;25998;46.604;13.610;2023-03-26T20:01:51;8.70;99.90
40287;DHT22;25998;46.604;13.610;2023-03-26T20:05:02;8.70;99.90
40287;DHT22;25998;46.604;13.610;2023-03-26T20:08:14;8.80;99.90
40287;DHT22;25998;46.604;13.610;2023-03-26T20:14:42;8.80;99.90
40287;DHT22;25998;46.604;13.610;2023-03-26T20:17:54;8.70;99.90
40287;DHT22;25998;46.604;13.610;2023-03-26T20:21:10;8.80;99.90
40287;DHT22;25998;46.604;13.610;2023-03-26T20:24:22;8.90;99.90
40287;DHT22;25998;46.604;13.610;2023-03-26T20:27:34;8.90;99.90
40287;DHT22;25998;46.604;13.610;2023-03-26T20:30:49;8.70;99.90
40287;DHT22;25998;46.604;13.610;2023-03-26T20:34:00;8.70;99.90
40287;DHT22;25998;46.604;13.610;2023-03-26T20:37:11;8.60;99.90
40287;DHT22;25998;46.604;13.610;2023-03-26T20:40:22;8.50;99.90
40287;DHT22;25998;46.604;13.610;2023-03-26T20:43:33;8.60;99.90
40287;DHT22;25998;46.604;13.610;2023-03-26T20:46:45;8.50;99.90
40287;DHT22;25998;46.604;13.610;2023-03-26T20:49:56;8.50;99.90
40287;DHT22;25998;46.604;13.610;2023-03-26T20:53:11;8.50;99.90
40287;DHT22;25998;46.604;13.610;2023-03-26T20:56:23;8.40;99.90
40287;DHT22;25998;46.604;13.610;2023-03-26T20:59:34;8.50;99.90
40287;DHT22;25998;46.604;13.610;2023-03-26T21:02:46;8.40;99.90
40287;DHT22;25998;46.604;13.610;2023-03-26T21:06:08;8.20;99.90
40287;DHT22;25998;46.604;13.610;2023-03-26T21:09:22;8.20;99.90
40287;DHT22;25998;46.604;13.610;2023-03-26T21:12:41;8.20;99.90
40287;DHT22;25998;46.604;13.610;2023-03-26T21:15:53;8.20;99.90
40287;DHT22;25998;46.604;13.610;2023-03-26T21:19:05;8.30;99.90
40287;DHT22;25998;46.604;13.610;2023-03-26T21:22:34;8.40;99.90
40287;DHT22;25998;46.604;13.610;2023-03-26T21:29:03;8.30;99.90
40287;DHT22;25998;46.604;13.610;2023-03-26T21:32:14;8.20;99.90
40287;DHT22;25998;46.604;13.610;2023-03-26T21:35:25;7.80;99.90
40287;DHT22;25998;46.604;13.610;2023-03-26T21:38:37;7.40;99.90
40287;DHT22;25998;46.604;13.610;2023-03-26T21:41:49;7.20;99.90
40287;DHT22;25998;46.604;13.610;2023-03-26T21:45:00;7.10;99.90
40287;DHT22;25998;46.604;13.610;2023-03-26T21:48:11;7.10;99.90
40287;DHT22;25998;46.604;13.610;2023-03-26T21:51:23;6.80;99.90
40287;DHT22;25998;46.604;13.610;2023-03-26T21:54:37;6.50;99.90
40287;DHT22;25998;46.604;13.610;2023-03-26T22:05:25;6.10;99.90
40287;DHT22;25998;46.604;13.610;2023-03-26T22:08:39;5.80;99.90
40287;DHT22;25998;46.604;13.610;2023-03-26T22:11:51;5.90;99.90
40287;DHT22;25998;46.604;13.610;2023-03-26T22:15:02;6.10;99.90
40287;DHT22;25998;46.604;13.610;2023-03-26T22:18:14;6.30;99.90
40287;DHT22;25998;46.604;13.610;2023-03-26T22:21:25;6.50;99.90
40287;DHT22;25998;46.604;13.610;2023-03-26T22:24:36;6.60;99.90
40287;DHT22;25998;46.604;13.610;2023-03-26T22:27:48;6.50;99.90
40287;DHT22;25998;46.604;13.610;2023-03-26T22:31:05;6.70;99.90
40287;DHT22;25998;46.604;13.610;2023-03-26T22:34:17;6.70;99.90
40287;DHT22;25998;46.604;13.610;2023-03-26T22:37:29;6.70;99.90
40287;DHT22;25998;46.604;13.610;2023-03-26T22:40:40;6.50;99.90
40287;DHT22;25998;46.604;13.610;2023-03-26T22:43:55;6.30;99.90
40287;DHT22;25998;46.604;13.610;2023-03-26T22:47:07;6.20;99.90
40287;DHT22;25998;46.604;13.610;2023-03-26T22:50:19;6.00;99.90
40287;DHT22;25998;46.604;13.610;2023-03-26T22:53:30;5.90;99.90
40287;DHT22;25998;46.604;13.610;2023-03-26T22:56:41;5.70;99.90
40287;DHT22;25998;46.604;13.610;2023-03-26T22:59:53;5.90;99.90
40287;DHT22;25998;46.604;13.610;2023-03-26T23:03:03;5.90;99.90
40287;DHT22;25998;46.604;13.610;2023-03-26T23:06:15;6.00;99.90
40287;DHT22;25998;46.604;13.610;2023-03-26T23:09:26;6.10;99.90
40287;DHT22;25998;46.604;13.610;2023-03-26T23:12:38;6.20;99.90
40287;DHT22;25998;46.604;13.610;2023-03-26T23:15:51;6.30;99.90
40287;DHT22;25998;46.604;13.610;2023-03-26T23:19:04;6.30;99.90
40287;DHT22;25998;46.604;13.610;2023-03-26T23:22:15;6.50;99.90
40287;DHT22;25998;46.604;13.610;2023-03-26T23:25:26;6.60;99.90
40287;DHT22;25998;46.604;13.610;2023-03-26T23:28:37;6.60;99.90
40287;DHT22;25998;46.604;13.610;2023-03-26T23:31:50;6.80;99.90
40287;DHT22;25998;46.604;13.610;2023-03-26T23:35:02;6.80;99.90
40287;DHT22;25998;46.604;13.610;2023-03-26T23:38:13;6.70;99.90
40287;DHT22;25998;46.604;13.610;2023-03-26T23:41:24;6.80;99.90
40287;DHT22;25998;46.604;13.610;2023-03-26T23:44:36;7.00;99.90
40287;DHT22;25998;46.604;13.610;2023-03-26T23:47:48;7.10;99.90
40287;DHT22;25998;46.604;13.610;2023-03-26T23:50:59;7.10;99.90
40287;DHT22;25998;46.604;13.610;2023-03-26T23:54:10;7.10;99.90
40287;DHT22;25998;46.604;13.610;2023-03-26T23:57:21;7.00;99.90
